Time;durP1;ratioP1;P1;durP2;ratioP2;P2;SDS_P1;SDS_P2;PMS_P1;PMS_P2;Temp;Humidity;BMP_temperature;BMP_pressure;BME280_temperature;BME280_humidity;BME280_pressure;Samples;Min_cycle;Max_cycle;Signal;HPM_P1;HPM_P2
2023/02/07 00:01:15;;;;;;;6.00;4.60;;;16.10;47.30;;;;;;4987719;28;20626;-72
2023/02/07 00:03:40;;;;;;;5.97;4.30;;;16.10;47.10;;;;;;4987713;28;20065;-72
2023/02/07 00:06:07;;;;;;;6.55;4.13;;;16.10;47.10;;;;;;4987605;28;20026;-71
2023/02/07 00:08:33;;;;;;;6.45;4.15;;;16.10;47.00;;;;;;4987601;28;20030;-72
2023/02/07 00:11:04;;;;;;;5.72;4.20;;;16.10;47.20;;;;;;4987566;28;20026;-71
2023/02/07 00:13:30;;;;;;;5.63;3.97;;;16.00;47.40;;;;;;4987550;28;20054;-71
2023/02/07 00:15:56;;;;;;;5.05;3.80;;;16.00;47.50;;;;;;4987346;28;20035;-71
2023/02/07 00:18:21;;;;;;;5.10;3.92;;;15.90;47.60;;;;;;4987446;28;20365;-71
2023/02/07 00:21:01;;;;;;;6.15;3.92;;;15.80;47.90;;;;;;4987430;28;20070;-71
2023/02/07 00:23:27;;;;;;;6.75;4.53;;;15.80;47.90;;;;;;4987513;28;20046;-71
2023/02/07 00:25:53;;;;;;;8.10;4.53;;;15.70;48.00;;;;;;4987398;28;20112;-71
2023/02/07 00:28:18;;;;;;;5.70;3.65;;;15.60;48.10;;;;;;4987384;28;20373;-72
2023/02/07 00:30:44;;;;;;;5.00;3.80;;;15.60;48.30;;;;;;4987276;28;20030;-72
2023/02/07 00:33:10;;;;;;;5.88;4.00;;;15.60;49.00;;;;;;4986479;28;20035;-70
2023/02/07 00:35:36;;;;;;;5.03;4.05;;;15.50;48.40;;;;;;4983503;28;20109;-71
2023/02/07 00:38:02;;;;;;;6.38;4.40;;;15.50;48.50;;;;;;4984280;28;20230;-72
2023/02/07 00:40:27;;;;;;;5.10;3.58;;;15.50;48.60;;;;;;4984177;28;20037;-72
2023/02/07 00:42:53;;;;;;;5.60;4.20;;;15.50;48.70;;;;;;4984144;28;20105;-72
2023/02/07 00:45:19;;;;;;;5.40;3.80;;;15.40;48.70;;;;;;4984125;28;20188;-72
2023/02/07 00:47:45;;;;;;;7.13;4.25;;;15.50;48.80;;;;;;4984033;28;20098;-71
2023/02/07 00:50:11;;;;;;;3.75;3.20;;;15.60;48.70;;;;;;4983978;28;20370;-72
2023/02/07 00:52:36;;;;;;;6.07;4.20;;;15.60;48.50;;;;;;4983919;28;20070;-72
2023/02/07 00:55:02;;;;;;;6.55;4.05;;;15.70;48.50;;;;;;4983740;28;20342;-72
2023/02/07 00:57:28;;;;;;;5.43;4.07;;;15.80;48.20;;;;;;4983903;28;20026;-71
2023/02/07 00:59:54;;;;;;;6.28;3.80;;;15.80;47.90;;;;;;4983779;28;20019;-72
2023/02/07 01:02:20;;;;;;;5.72;3.95;;;15.90;47.80;;;;;;4983781;28;20265;-71
2023/02/07 01:04:46;;;;;;;5.13;4.05;;;15.90;47.70;;;;;;4983560;28;20059;-71
2023/02/07 01:07:11;;;;;;;6.25;4.28;;;15.90;47.80;;;;;;4983834;28;20033;-72
2023/02/07 01:09:37;;;;;;;6.22;4.70;;;15.90;47.60;;;;;;4983742;28;20377;-72
2023/02/07 01:12:03;;;;;;;6.40;3.90;;;15.90;47.30;;;;;;4983763;28;20026;-71
2023/02/07 01:14:29;;;;;;;6.10;4.07;;;15.90;47.30;;;;;;4983539;28;20022;-71
2023/02/07 01:16:55;;;;;;;6.97;4.32;;;15.90;47.30;;;;;;4983480;28;20023;-71
2023/02/07 01:19:21;;;;;;;6.00;3.90;;;16.00;47.40;;;;;;4983401;28;20033;-71
2023/02/07 01:21:47;;;;;;;5.40;4.07;;;16.00;47.40;;;;;;4983740;28;20022;-71
2023/02/07 01:24:13;;;;;;;6.65;4.38;;;16.00;47.40;;;;;;4983388;28;20035;-73
2023/02/07 01:26:39;;;;;;;5.68;3.78;;;16.00;47.10;;;;;;4983413;28;20218;-72
2023/02/07 01:29:05;;;;;;;6.65;4.63;;;16.00;47.30;;;;;;4983373;28;20046;-71
2023/02/07 01:31:32;;;;;;;4.90;3.53;;;16.00;47.10;;;;;;4983470;28;20306;-71
2023/02/07 01:33:59;;;;;;;7.05;3.97;;;16.10;47.20;;;;;;4982079;28;20031;-71
2023/02/07 01:36:27;;;;;;;5.97;4.35;;;16.10;47.20;;;;;;4983155;28;20055;-71
2023/02/07 01:38:54;;;;;;;5.82;3.97;;;16.10;46.90;;;;;;4983107;28;20061;-71
2023/02/07 01:41:22;;;;;;;6.80;4.15;;;16.10;47.00;;;;;;4983128;28;20023;-71
2023/02/07 01:44:20;;;;;;;5.38;3.60;;;16.10;47.10;;;;;;4983085;28;20341;-72
2023/02/07 01:46:46;;;;;;;6.97;3.95;;;16.10;47.20;;;;;;4982905;28;20034;-72
2023/02/07 01:49:15;;;;;;;6.32;4.43;;;16.10;47.20;;;;;;4982974;28;20101;-72
2023/02/07 01:51:45;;;;;;;5.97;4.07;;;16.10;47.10;;;;;;4983065;28;20090;-72
2023/02/07 01:54:14;;;;;;;5.20;3.97;;;16.10;47.20;;;;;;4982984;28;20030;-71
2023/02/07 01:56:44;;;;;;;5.30;3.85;;;16.00;47.00;;;;;;4982734;28;20027;-71
2023/02/07 01:59:10;;;;;;;6.00;4.00;;;15.90;47.20;;;;;;4982780;28;20025;-71
2023/02/07 02:01:36;;;;;;;6.72;4.65;;;15.90;47.30;;;;;;4982684;28;20023;-71
2023/02/07 02:04:02;;;;;;;6.90;4.60;;;15.80;47.40;;;;;;4982419;28;20090;-72
2023/02/07 02:06:32;;;;;;;6.82;4.65;;;15.70;47.30;;;;;;4982577;28;20326;-72
2023/02/07 02:09:00;;;;;;;6.65;4.80;;;15.60;47.40;;;;;;4982595;28;20033;-71
2023/02/07 02:11:35;;;;;;;10.23;5.40;;;15.50;47.50;;;;;;4982576;28;20026;-72
2023/02/07 02:14:12;;;;;;;8.10;5.35;;;15.50;47.60;;;;;;4982426;28;20087;-72
2023/02/07 02:17:16;;;;;;;5.63;4.07;;;15.40;47.70;;;;;;4982426;28;20026;-71
2023/02/07 02:20:12;;;;;;;8.52;5.10;;;15.30;47.80;;;;;;4982326;28;20027;-72
2023/02/07 02:22:50;;;;;;;9.00;5.68;;;15.40;48.00;;;;;;4982358;28;20142;-71
2023/02/07 02:25:41;;;;;;;8.02;4.22;;;15.50;48.10;;;;;;4982243;28;20029;-71
2023/02/07 02:28:37;;;;;;;8.10;5.15;;;15.50;48.10;;;;;;4977431;28;20046;-71
2023/02/07 02:31:39;;;;;;;7.22;4.93;;;15.60;48.10;;;;;;4982122;28;20027;-72
2023/02/07 02:34:40;;;;;;;7.60;4.57;;;15.80;48.00;;;;;;4980803;28;20050;-72
2023/02/07 02:37:34;;;;;;;7.13;4.97;;;15.80;47.70;;;;;;4947596;28;20055;-71
2023/02/07 02:40:26;;;;;;;7.78;4.65;;;15.80;47.70;;;;;;4982083;28;20064;-72
2023/02/07 02:43:16;;;;;;;7.47;4.88;;;15.90;47.60;;;;;;4982136;28;20045;-71
2023/02/07 02:45:48;;;;;;;7.65;5.13;;;15.90;47.50;;;;;;4982063;28;20057;-71
2023/02/07 02:48:16;;;;;;;7.63;4.75;;;15.90;47.30;;;;;;4982036;28;20026;-72
2023/02/07 02:50:46;;;;;;;6.43;4.30;;;15.90;47.20;;;;;;4981875;28;20011;-72
2023/02/07 02:53:13;;;;;;;6.70;4.75;;;16.00;47.20;;;;;;4981814;28;20029;-71
2023/02/07 02:55:59;;;;;;;7.80;4.63;;;16.00;47.20;;;;;;4981741;28;20035;-72
2023/02/07 02:58:47;;;;;;;6.10;4.47;;;16.00;47.10;;;;;;4981275;28;20334;-72
2023/02/07 03:01:15;;;;;;;7.40;5.20;;;16.00;47.00;;;;;;4981719;28;20486;-71
2023/02/07 03:04:09;;;;;;;8.63;4.88;;;16.00;47.10;;;;;;4981455;28;20205;-71
2023/02/07 03:07:01;;;;;;;8.05;5.22;;;16.00;47.00;;;;;;4981519;28;20057;-72
2023/02/07 03:09:46;;;;;;;7.32;4.75;;;16.00;46.80;;;;;;4981546;28;20042;-72
2023/02/07 03:12:35;;;;;;;7.43;5.05;;;16.00;46.80;;;;;;4981556;28;20019;-72
2023/02/07 03:15:07;;;;;;;7.63;5.22;;;16.00;46.70;;;;;;4981427;28;20038;-72
2023/02/07 03:17:41;;;;;;;6.13;4.80;;;16.00;46.60;;;;;;4981454;28;20045;-71
2023/02/07 03:20:19;;;;;;;7.38;4.82;;;16.00;46.60;;;;;;4981435;28;20073;-72
2023/02/07 03:22:47;;;;;;;6.47;4.78;;;16.00;46.70;;;;;;4981464;28;20034;-71
2023/02/07 03:25:15;;;;;;;7.47;5.00;;;16.00;46.70;;;;;;4981443;28;20069;-71
2023/02/07 03:27:43;;;;;;;7.13;4.75;;;16.00;46.60;;;;;;4981383;28;20270;-71
2023/02/07 03:30:13;;;;;;;7.00;4.88;;;16.00;46.60;;;;;;4981420;28;20030;-70
2023/02/07 03:32:44;;;;;;;7.45;4.70;;;16.00;46.40;;;;;;4981369;28;20019;-72
2023/02/07 03:35:15;;;;;;;7.25;4.85;;;16.00;46.60;;;;;;4979932;28;20111;-71
2023/02/07 03:37:54;;;;;;;7.40;5.03;;;16.00;46.50;;;;;;4981383;28;20288;-71
2023/02/07 03:40:22;;;;;;;7.45;4.95;;;16.00;46.60;;;;;;4981267;28;20027;-71
2023/02/07 03:43:01;;;;;;;6.63;4.20;;;16.00;46.80;;;;;;4981214;28;20022;-70
2023/02/07 03:45:27;;;;;;;6.88;4.30;;;16.00;46.90;;;;;;4981282;28;20030;-72
2023/02/07 03:47:52;;;;;;;6.80;5.20;;;16.00;46.60;;;;;;4981198;28;20082;-71
2023/02/07 03:50:18;;;;;;;7.25;5.68;;;16.10;46.60;;;;;;4981082;28;20120;-71
2023/02/07 03:52:44;;;;;;;6.90;4.68;;;16.10;46.40;;;;;;4981096;28;20027;-71
2023/02/07 03:55:10;;;;;;;6.68;4.85;;;16.00;47.30;;;;;;4981023;28;20050;-71
2023/02/07 03:57:36;;;;;;;6.00;4.22;;;15.90;46.90;;;;;;4981090;28;20031;-71
2023/02/07 04:00:04;;;;;;;8.18;5.40;;;15.90;47.10;;;;;;4981085;28;20029;-71
2023/02/07 04:02:30;;;;;;;6.55;4.15;;;15.80;47.10;;;;;;4981098;28;20026;-71
2023/02/07 04:04:56;;;;;;;6.53;4.32;;;15.70;47.20;;;;;;4980833;28;20370;-71
2023/02/07 04:07:22;;;;;;;8.45;5.07;;;15.60;47.30;;;;;;4980982;28;20037;-72
2023/02/07 04:09:48;;;;;;;7.47;4.82;;;15.60;47.30;;;;;;4981579;28;20057;-72
2023/02/07 04:12:13;;;;;;;7.55;4.47;;;15.50;47.20;;;;;;4983233;28;20027;-71
2023/02/07 04:14:39;;;;;;;6.85;4.95;;;15.50;47.30;;;;;;4984579;28;20023;-72
2023/02/07 04:17:05;;;;;;;9.73;5.40;;;15.40;47.30;;;;;;4984376;28;20378;-71
2023/02/07 04:19:31;;;;;;;7.13;5.25;;;15.30;47.50;;;;;;4984454;28;20027;-71
2023/02/07 04:21:57;;;;;;;8.05;5.15;;;15.30;47.60;;;;;;4984429;28;20082;-72
2023/02/07 04:24:22;;;;;;;8.00;5.85;;;15.30;47.90;;;;;;4984408;28;20053;-71
2023/02/07 04:26:48;;;;;;;7.60;4.85;;;15.40;47.70;;;;;;4984309;28;20046;-71
2023/02/07 04:29:14;;;;;;;6.30;4.75;;;15.40;47.70;;;;;;4984336;28;20390;-71
2023/02/07 04:31:41;;;;;;;7.10;4.55;;;15.50;47.60;;;;;;4984271;28;20215;-72
2023/02/07 04:34:08;;;;;;;7.00;5.03;;;15.60;47.40;;;;;;4984152;28;20023;-71
2023/02/07 04:36:35;;;;;;;8.13;5.18;;;15.60;47.50;;;;;;4984141;28;20022;-71
2023/02/07 04:39:01;;;;;;;7.90;5.15;;;15.70;47.20;;;;;;4984371;28;20034;-71
2023/02/07 04:41:27;;;;;;;6.70;4.55;;;15.70;47.40;;;;;;4984279;28;20042;-71
2023/02/07 04:43:53;;;;;;;8.07;4.60;;;15.70;47.30;;;;;;4984116;28;20056;-72
2023/02/07 04:46:19;;;;;;;8.10;4.55;;;15.80;47.20;;;;;;4983923;28;20027;-72
2023/02/07 04:48:44;;;;;;;6.47;4.80;;;15.80;47.10;;;;;;4984026;28;20019;-72
2023/02/07 04:51:11;;;;;;;6.93;4.40;;;15.80;47.20;;;;;;4983937;28;20027;-71
2023/02/07 04:53:36;;;;;;;7.07;5.13;;;15.90;47.10;;;;;;4983848;28;20094;-72
2023/02/07 04:56:02;;;;;;;7.38;4.93;;;15.90;47.00;;;;;;4983767;28;20041;-72
2023/02/07 04:58:28;;;;;;;6.13;4.60;;;15.90;46.90;;;;;;4983904;28;20034;-71
2023/02/07 05:00:54;;;;;;;8.88;5.32;;;15.90;47.00;;;;;;4983707;28;20092;-71
2023/02/07 05:03:20;;;;;;;9.05;5.80;;;15.80;46.70;;;;;;4983660;28;20337;-72
2023/02/07 05:05:46;;;;;;;6.85;4.68;;;15.90;46.70;;;;;;4943958;29;20048;-72
2023/02/07 05:08:12;;;;;;;6.47;4.85;;;15.80;46.70;;;;;;4945148;29;20032;-71
2023/02/07 05:10:38;;;;;;;6.60;4.70;;;15.90;46.60;;;;;;4945156;29;20351;-72
2023/02/07 05:13:05;;;;;;;8.23;5.40;;;15.90;46.50;;;;;;4945209;29;20374;-72
2023/02/07 05:15:31;;;;;;;5.93;4.95;;;15.90;46.30;;;;;;4944995;29;20019;-71
2023/02/07 05:17:57;;;;;;;6.90;4.65;;;15.90;46.40;;;;;;4945080;29;20042;-71
2023/02/07 05:20:24;;;;;;;6.47;4.57;;;15.90;47.10;;;;;;4944427;29;20012;-71
2023/02/07 05:22:50;;;;;;;10.85;5.60;;;15.80;46.40;;;;;;4944861;29;20031;-72
2023/02/07 05:25:16;;;;;;;7.10;4.63;;;15.80;46.40;;;;;;4944872;29;20022;-71
2023/02/07 05:27:43;;;;;;;7.10;5.15;;;15.80;46.30;;;;;;4944831;29;20039;-72
2023/02/07 05:30:09;;;;;;;7.28;5.07;;;15.80;46.30;;;;;;4944829;29;20229;-72
2023/02/07 05:35:20;;;;;;;6.70;5.07;;;15.90;46.10;;;;;;4944755;29;20127;-72
2023/02/07 05:37:46;;;;;;;7.15;5.18;;;15.90;46.20;;;;;;4944697;29;20208;-71
2023/02/07 05:40:12;;;;;;;7.43;5.13;;;15.90;46.40;;;;;;4944657;29;20026;-71
2023/02/07 05:42:38;;;;;;;7.78;5.28;;;15.90;46.50;;;;;;4944595;29;20135;-71
2023/02/07 05:45:06;;;;;;;8.02;5.25;;;15.90;46.60;;;;;;4944494;29;20031;-71
2023/02/07 05:47:31;;;;;;;7.03;4.78;;;15.90;46.50;;;;;;4944466;29;20232;-71
2023/02/07 05:49:57;;;;;;;5.47;4.05;;;15.90;46.70;;;;;;4944394;29;20031;-73
2023/02/07 05:52:23;;;;;;;7.45;4.75;;;15.90;46.50;;;;;;4944371;29;20107;-72
2023/02/07 05:54:49;;;;;;;8.48;4.13;;;15.90;46.60;;;;;;4944313;29;20082;-71
2023/02/07 05:57:15;;;;;;;6.40;4.60;;;15.80;46.70;;;;;;4944167;29;20059;-71
2023/02/07 05:59:41;;;;;;;6.18;4.30;;;15.80;46.90;;;;;;4944216;29;20015;-71
2023/02/07 06:02:06;;;;;;;7.15;4.10;;;15.70;46.90;;;;;;4944097;29;20019;-71
2023/02/07 06:04:32;;;;;;;5.88;4.47;;;15.60;47.10;;;;;;4963030;28;20363;-71
2023/02/07 06:06:58;;;;;;;7.22;5.07;;;15.60;47.30;;;;;;4982520;28;20042;-71
2023/02/07 06:09:24;;;;;;;7.13;4.70;;;15.50;47.30;;;;;;4982507;28;20070;-71
2023/02/07 06:11:50;;;;;;;6.32;4.20;;;15.50;47.40;;;;;;4982510;28;20559;-71
2023/02/07 06:14:16;;;;;;;8.43;4.20;;;15.40;47.40;;;;;;4982362;28;20035;-71
2023/02/07 06:16:42;;;;;;;6.85;4.28;;;15.30;47.40;;;;;;4982272;28;20049;-71
2023/02/07 06:19:10;;;;;;;6.78;4.72;;;15.30;47.40;;;;;;4982311;28;20019;-71
2023/02/07 06:21:36;;;;;;;6.80;4.43;;;15.20;47.60;;;;;;4982269;28;20026;-71
2023/02/07 06:24:01;;;;;;;8.73;4.80;;;15.30;47.80;;;;;;4982299;28;20179;-71
2023/02/07 06:26:28;;;;;;;6.97;4.78;;;15.30;47.60;;;;;;4982344;28;20066;-72
2023/02/07 06:28:54;;;;;;;6.47;4.63;;;15.40;47.70;;;;;;4980888;28;20054;-71
2023/02/07 06:31:19;;;;;;;6.45;4.78;;;15.50;47.50;;;;;;4981683;28;20030;-71
2023/02/07 06:33:45;;;;;;;5.85;4.35;;;15.50;47.30;;;;;;4981928;28;20057;-71
2023/02/07 06:36:11;;;;;;;6.03;4.38;;;15.50;47.00;;;;;;4982064;28;20066;-71
2023/02/07 06:38:37;;;;;;;8.13;4.45;;;15.60;47.20;;;;;;4982000;28;20078;-71
2023/02/07 06:41:03;;;;;;;6.53;4.35;;;15.60;47.10;;;;;;4981909;28;20026;-70
2023/02/07 06:43:29;;;;;;;5.65;4.47;;;15.60;47.00;;;;;;4981838;28;20030;-72
2023/02/07 06:45:54;;;;;;;7.13;4.45;;;15.60;47.00;;;;;;4981782;28;20380;-71
2023/02/07 06:48:21;;;;;;;4.95;4.35;;;15.70;47.10;;;;;;4981775;28;20034;-71
2023/02/07 06:50:50;;;;;;;5.93;4.47;;;15.80;47.10;;;;;;4981687;28;20093;-71
2023/02/07 06:53:16;;;;;;;6.65;4.72;;;15.80;46.90;;;;;;4981736;28;20045;-71
2023/02/07 06:55:42;;;;;;;5.93;4.35;;;15.80;46.90;;;;;;4981632;28;20034;-72
2023/02/07 06:58:08;;;;;;;5.10;4.05;;;15.90;46.80;;;;;;4981581;28;20106;-71
2023/02/07 07:00:34;;;;;;;5.78;4.30;;;15.90;46.70;;;;;;4981606;28;20304;-71
2023/02/07 07:03:00;;;;;;;7.45;4.90;;;15.90;46.90;;;;;;4981595;28;20035;-71
2023/02/07 07:05:26;;;;;;;6.82;4.70;;;15.90;46.80;;;;;;4981390;28;20050;-73
2023/02/07 07:07:52;;;;;;;6.07;4.53;;;15.90;46.70;;;;;;4981484;28;20029;-72
2023/02/07 07:10:18;;;;;;;6.68;4.85;;;16.00;46.80;;;;;;4981507;28;20030;-72
2023/02/07 07:12:46;;;;;;;7.00;4.88;;;16.00;46.70;;;;;;4981403;28;20196;-71
2023/02/07 07:15:12;;;;;;;7.10;4.30;;;16.00;46.60;;;;;;4980064;28;20031;-72
2023/02/07 07:17:38;;;;;;;7.60;5.07;;;16.00;46.30;;;;;;4981411;28;20022;-71
2023/02/07 07:20:06;;;;;;;5.47;4.72;;;16.00;46.40;;;;;;4981293;28;20034;-71
2023/02/07 07:22:32;;;;;;;6.82;4.60;;;15.90;46.60;;;;;;4981432;28;20023;-71
2023/02/07 07:24:58;;;;;;;5.68;3.92;;;15.80;46.60;;;;;;4981419;28;20093;-71
2023/02/07 07:27:24;;;;;;;7.15;5.03;;;15.80;46.80;;;;;;4981332;28;20061;-73
2023/02/07 07:29:50;;;;;;;6.93;5.15;;;15.70;46.80;;;;;;4980015;28;20034;-71
2023/02/07 07:32:16;;;;;;;5.15;3.95;;;15.60;46.90;;;;;;4981280;28;20097;-72
2023/02/07 07:34:42;;;;;;;7.03;4.95;;;15.60;47.10;;;;;;4981311;28;20038;-71
2023/02/07 07:37:10;;;;;;;6.80;4.50;;;15.60;47.20;;;;;;4979876;28;20301;-71
2023/02/07 07:39:36;;;;;;;6.97;5.00;;;15.50;47.10;;;;;;4981200;28;20023;-72
2023/02/07 07:42:01;;;;;;;7.47;4.80;;;15.50;47.20;;;;;;4981219;28;20027;-71
2023/02/07 07:44:27;;;;;;;7.90;4.95;;;15.50;47.30;;;;;;4984196;28;20042;-71
2023/02/07 07:46:53;;;;;;;6.78;4.75;;;15.60;47.30;;;;;;4985095;28;20045;-72
2023/02/07 07:49:19;;;;;;;6.38;4.68;;;15.60;47.20;;;;;;4991786;28;20077;-72
2023/02/07 07:51:45;;;;;;;6.47;4.18;;;15.80;47.20;;;;;;5004350;28;20036;-72
2023/02/07 07:54:12;;;;;;;13.35;5.93;;;15.90;47.10;;;;;;5000052;28;20034;-71
2023/02/07 07:56:38;;;;;;;16.10;6.47;;;15.90;46.90;;;;;;5000694;28;20556;-71
2023/02/07 07:59:04;;;;;;;19.27;6.68;;;15.30;46.20;;;;;;4997714;28;20029;-71
2023/02/07 08:01:30;;;;;;;78.82;11.00;;;15.70;46.90;;;;;;4990191;28;20022;-71
2023/02/07 08:03:56;;;;;;;24.85;7.22;;;16.00;46.50;;;;;;4996220;28;20070;-70
2023/02/07 08:06:23;;;;;;;33.90;6.57;;;16.10;46.00;;;;;;5004050;28;20527;-71
2023/02/07 08:08:49;;;;;;;48.20;7.07;;;16.30;46.30;;;;;;5004176;28;20081;-69
2023/02/07 08:11:15;;;;;;;34.03;5.63;;;16.30;46.20;;;;;;4997729;28;20018;-70
2023/02/07 08:13:41;;;;;;;57.33;15.88;;;16.50;46.30;;;;;;5003668;28;20034;-67
2023/02/07 08:16:13;;;;;;;39.78;8.48;;;15.90;39.50;;;;;;5003959;28;20032;-69
2023/02/07 08:18:38;;;;;;;29.08;7.68;;;16.10;45.60;;;;;;5003954;28;20026;-69
2023/02/07 08:21:05;;;;;;;27.40;6.53;;;16.30;46.30;;;;;;5003962;28;20022;-69
2023/02/07 08:23:30;;;;;;;17.42;5.63;;;16.40;46.60;;;;;;5003989;28;20109;-68
2023/02/07 08:25:56;;;;;;;14.65;5.65;;;16.40;46.60;;;;;;5003747;28;20325;-68
2023/02/07 08:28:23;;;;;;;14.95;6.07;;;16.40;46.70;;;;;;5003778;28;20025;-73
2023/02/07 08:30:48;;;;;;;21.65;6.15;;;16.40;46.80;;;;;;5003015;28;20030;-71
2023/02/07 08:33:15;;;;;;;20.73;5.68;;;16.40;47.30;;;;;;4997564;28;20073;-70
2023/02/07 08:35:42;;;;;;;14.63;4.95;;;16.40;47.00;;;;;;4993818;28;20026;-70
2023/02/07 08:38:07;;;;;;;19.15;5.43;;;16.30;47.20;;;;;;5003490;28;20186;-66
2023/02/07 08:40:34;;;;;;;34.67;7.00;;;16.30;47.60;;;;;;5003345;28;20330;-73
2023/02/07 08:43:01;;;;;;;13.00;5.60;;;16.30;47.50;;;;;;5003419;28;20085;-71
2023/02/07 08:45:27;;;;;;;21.58;6.28;;;16.30;47.50;;;;;;5003274;28;20046;-68
2023/02/07 08:47:53;;;;;;;20.05;5.35;;;16.30;47.60;;;;;;5003324;28;20556;-69
2023/02/07 08:50:18;;;;;;;16.00;5.25;;;16.30;47.80;;;;;;5003302;28;20344;-71
2023/02/07 08:52:44;;;;;;;13.98;5.68;;;16.30;48.00;;;;;;5003118;28;20064;-70
2023/02/07 08:55:10;;;;;;;12.65;4.63;;;16.20;48.00;;;;;;5002442;28;20238;-70
2023/02/07 08:57:37;;;;;;;25.00;6.97;;;16.20;48.10;;;;;;4997729;28;20034;-70
2023/02/07 09:00:07;;;;;;;15.77;5.53;;;16.20;48.00;;;;;;5002119;28;20034;-74
2023/02/07 09:02:33;;;;;;;13.70;5.70;;;16.20;48.10;;;;;;5000666;28;20445;-75
2023/02/07 09:04:59;;;;;;;10.63;5.32;;;16.20;48.10;;;;;;5001639;28;20057;-70
2023/02/07 09:07:25;;;;;;;22.13;12.07;;;16.20;48.00;;;;;;5000903;28;20042;-69
2023/02/07 09:09:50;;;;;;;29.17;13.30;;;15.60;40.60;;;;;;5002327;28;20027;-70
2023/02/07 09:12:16;;;;;;;21.13;12.93;;;15.30;40.50;;;;;;5002756;28;20529;-70
2023/02/07 09:14:42;;;;;;;45.28;14.82;;;14.90;40.30;;;;;;5000247;28;20346;-70
2023/02/07 09:17:08;;;;;;;31.63;13.10;;;14.60;40.30;;;;;;5001351;28;20030;-69
2023/02/07 09:19:35;;;;;;;35.78;14.20;;;14.40;40.10;;;;;;5001582;28;20026;-70
2023/02/07 09:22:01;;;;;;;17.08;7.68;;;14.20;42.50;;;;;;5002033;28;20019;-71
2023/02/07 09:24:27;;;;;;;28.08;8.05;;;14.90;47.50;;;;;;5001952;28;20026;-72
2023/02/07 09:26:53;;;;;;;21.75;7.20;;;15.40;48.80;;;;;;5001770;28;20045;-69
2023/02/07 09:29:19;;;;;;;26.80;6.90;;;15.70;48.60;;;;;;5002402;28;20027;-70
2023/02/07 09:31:45;;;;;;;17.65;6.03;;;15.90;48.70;;;;;;5002540;28;20345;-71
2023/02/07 09:34:11;;;;;;;21.65;6.07;;;16.10;48.00;;;;;;5002476;28;20030;-71
2023/02/07 09:36:37;;;;;;;17.63;6.45;;;16.30;47.70;;;;;;5002420;28;20026;-71
2023/02/07 09:39:04;;;;;;;35.72;15.07;;;16.40;47.50;;;;;;5002541;28;20026;-69
2023/02/07 09:41:49;;;;;;;29.00;8.27;;;15.90;41.40;;;;;;5002501;28;20030;-72
2023/02/07 09:44:40;;;;;;;39.03;7.70;;;16.20;47.20;;;;;;5002435;28;20026;-69
2023/02/07 09:47:14;;;;;;;29.25;6.50;;;16.30;47.30;;;;;;5002428;28;20313;-69
2023/02/07 09:49:48;;;;;;;24.80;6.78;;;16.50;47.50;;;;;;5002290;28;20206;-69
2023/02/07 09:52:20;;;;;;;19.90;6.07;;;16.60;47.30;;;;;;5002269;28;20129;-69
2023/02/07 09:54:51;;;;;;;17.83;5.97;;;16.70;47.40;;;;;;5002246;28;20360;-69
2023/02/07 09:57:41;;;;;;;14.93;5.53;;;16.80;47.40;;;;;;5002144;28;20019;-70
2023/02/07 10:00:20;;;;;;;19.50;6.22;;;16.80;47.10;;;;;;5002291;28;20044;-69
2023/02/07 10:03:24;;;;;;;17.92;6.45;;;16.90;47.10;;;;;;5000833;28;20018;-69
2023/02/07 10:06:00;;;;;;;23.88;6.22;;;16.90;47.00;;;;;;4963228;28;20077;-70
2023/02/07 10:08:27;;;;;;;20.38;6.80;;;16.90;47.20;;;;;;4963211;28;20027;-69
2023/02/07 10:11:23;;;;;;;16.35;6.30;;;16.90;47.40;;;;;;4963169;28;20047;-69
2023/02/07 10:14:20;;;;;;;10.57;5.55;;;17.00;47.30;;;;;;4963144;29;20282;-69
2023/02/07 10:17:11;;;;;;;16.70;5.25;;;17.00;47.30;;;;;;4952267;28;20393;-69
2023/02/07 10:20:01;;;;;;;14.13;5.70;;;17.10;47.40;;;;;;4963045;28;20031;-69
2023/02/07 10:22:53;;;;;;;15.50;6.13;;;17.10;47.40;;;;;;4962984;28;20215;-69
2023/02/07 10:25:52;;;;;;;12.38;5.93;;;17.20;47.20;;;;;;4952848;28;20105;-70
2023/02/07 10:28:55;;;;;;;16.77;6.50;;;17.20;47.40;;;;;;4962849;28;20019;-69
2023/02/07 10:31:24;;;;;;;16.30;5.88;;;17.10;47.40;;;;;;4962803;28;20019;-72
2023/02/07 10:34:01;;;;;;;15.05;5.97;;;17.00;47.30;;;;;;4962743;28;20023;-70
2023/02/07 10:36:33;;;;;;;27.33;6.50;;;17.00;47.50;;;;;;4962629;28;20094;-68
2023/02/07 10:39:43;;;;;;;12.35;4.53;;;17.10;47.80;;;;;;4962666;28;20027;-71
2023/02/07 10:42:14;;;;;;;17.35;6.13;;;17.10;47.40;;;;;;4941000;29;20067;-68
2023/02/07 10:44:41;;;;;;;16.60;5.90;;;17.10;47.90;;;;;;4960439;28;20083;-69
2023/02/07 10:47:12;;;;;;;15.20;5.90;;;17.00;47.80;;;;;;4961213;28;20027;-69
2023/02/07 10:49:37;;;;;;;21.55;8.07;;;16.90;47.90;;;;;;4962532;28;20031;-69
2023/02/07 10:52:43;;;;;;;13.23;6.13;;;16.70;46.70;;;;;;4962469;28;20079;-68
2023/02/07 10:55:10;;;;;;;14.65;6.88;;;16.80;48.50;;;;;;4962407;28;20015;-70
2023/02/07 10:57:36;;;;;;;20.60;6.47;;;16.80;48.30;;;;;;4962250;28;20031;-70
2023/02/07 11:00:05;;;;;;;17.42;5.78;;;16.80;48.50;;;;;;4962265;28;20252;-70
2023/02/07 11:02:31;;;;;;;11.60;5.63;;;16.80;48.60;;;;;;4962230;28;20045;-70
2023/02/07 11:04:59;;;;;;;11.52;5.47;;;16.80;48.80;;;;;;4986624;28;20353;-70
2023/02/07 11:07:26;;;;;;;10.95;5.50;;;16.80;48.80;;;;;;5001019;28;20334;-69
2023/02/07 11:10:12;;;;;;;25.35;13.18;;;16.80;48.90;;;;;;5001084;28;20044;-70
2023/02/07 11:12:54;;;;;;;21.05;7.70;;;15.90;42.20;;;;;;5000907;28;20341;-70
2023/02/07 11:15:25;;;;;;;11.38;5.93;;;16.20;47.80;;;;;;5001085;28;20344;-70
2023/02/07 11:17:56;;;;;;;13.10;7.03;;;16.40;49.00;;;;;;5000526;28;20030;-70
2023/02/07 11:20:33;;;;;;;12.85;6.22;;;16.50;49.00;;;;;;4999689;28;20102;-72
2023/02/07 11:22:59;;;;;;;18.85;6.72;;;16.60;48.80;;;;;;4999588;28;20249;-71
2023/02/07 11:25:37;;;;;;;13.02;5.88;;;16.50;48.50;;;;;;5000795;28;20022;-71
2023/02/07 11:28:03;;;;;;;17.83;6.13;;;16.60;48.70;;;;;;5000829;28;20022;-68
2023/02/07 11:30:35;;;;;;;11.52;5.30;;;16.70;48.70;;;;;;5000912;28;20085;-71
2023/02/07 11:33:08;;;;;;;14.15;5.57;;;16.70;48.70;;;;;;5000734;28;20237;-69
2023/02/07 11:35:35;;;;;;;13.52;5.35;;;16.70;48.70;;;;;;5000669;28;20018;-69
2023/02/07 11:38:11;;;;;;;18.58;5.63;;;16.70;48.70;;;;;;5000707;28;20030;-70
2023/02/07 11:40:43;;;;;;;12.40;5.43;;;16.70;48.70;;;;;;5000797;28;20090;-73
2023/02/07 11:43:15;;;;;;;14.05;6.38;;;16.70;48.70;;;;;;5000728;28;20023;-73
2023/02/07 11:45:48;;;;;;;13.63;5.43;;;16.70;48.70;;;;;;5000618;28;20373;-72
2023/02/07 11:48:29;;;;;;;11.15;5.60;;;16.80;48.70;;;;;;5000619;28;20026;-71
2023/02/07 11:51:02;;;;;;;28.73;6.40;;;16.80;48.10;;;;;;5000752;28;20022;-70
2023/02/07 11:53:36;;;;;;;28.77;7.43;;;16.70;48.20;;;;;;5000867;28;20259;-72
2023/02/07 11:56:03;;;;;;;19.85;6.20;;;16.80;48.30;;;;;;5000745;28;20030;-73
2023/02/07 11:58:45;;;;;;;20.65;7.00;;;17.00;48.30;;;;;;5000909;28;20026;-71
2023/02/07 12:01:17;;;;;;;24.95;6.43;;;17.10;48.20;;;;;;5001085;28;20026;-74
2023/02/07 12:03:51;;;;;;;15.95;6.28;;;17.20;48.10;;;;;;5000513;28;20024;-73
2023/02/07 12:06:22;;;;;;;28.05;6.40;;;17.20;48.10;;;;;;5000744;28;20038;-75
2023/02/07 12:08:51;;;;;;;18.45;6.35;;;17.20;48.20;;;;;;5000740;28;20050;-72
2023/02/07 12:11:35;;;;;;;14.32;6.13;;;17.30;48.20;;;;;;5000657;28;20037;-73
2023/02/07 12:14:17;;;;;;;16.08;6.55;;;17.30;48.10;;;;;;5000628;28;20096;-73
2023/02/07 12:16:51;;;;;;;16.70;6.03;;;16.80;47.70;;;;;;4999303;28;20069;-73
2023/02/07 12:19:38;;;;;;;144.38;21.40;;;17.00;48.50;;;;;;5000569;28;20022;-74
2023/02/07 12:22:09;;;;;;;32.28;8.32;;;16.80;45.90;;;;;;5000493;28;20381;-73
2023/02/07 12:24:44;;;;;;;19.88;7.30;;;16.80;47.20;;;;;;5000425;28;20034;-72
2023/02/07 12:27:14;;;;;;;21.70;7.53;;;16.80;47.10;;;;;;5000468;28;20023;-72
2023/02/07 12:30:00;;;;;;;21.80;10.35;;;16.70;47.10;;;;;;5000397;28;20093;-69
2023/02/07 12:32:44;;;;;;;29.67;8.50;;;15.20;41.50;;;;;;5003899;28;20018;-71
2023/02/07 12:35:42;;;;;;;22.13;7.88;;;15.60;45.70;;;;;;5003909;28;20041;-69
2023/02/07 12:38:11;;;;;;;;;;;16.00;46.70;;;;;;5004379;28;20329;-68
2023/02/07 12:40:46;;;;;;;33.58;8.30;;;16.00;46.00;;;;;;5003746;28;20376;-70
2023/02/07 12:43:26;;;;;;;22.83;7.88;;;16.30;46.20;;;;;;5003879;28;20034;-71
2023/02/07 12:46:03;;;;;;;29.50;8.80;;;16.50;45.80;;;;;;5003637;28;20231;-69
2023/02/07 12:48:54;;;;;;;35.47;8.75;;;16.70;45.50;;;;;;5003547;28;20261;-69
2023/02/07 12:51:32;;;;;;;31.90;8.43;;;16.80;45.10;;;;;;4984560;28;20053;-72
2023/02/07 12:54:07;;;;;;;28.23;9.33;;;17.00;44.90;;;;;;5003634;28;20053;-71
2023/02/07 12:56:51;;;;;;;29.05;9.68;;;17.10;44.50;;;;;;5003342;28;20026;-68
2023/02/07 12:59:40;;;;;;;39.28;10.63;;;17.10;44.40;;;;;;5003367;28;20074;-70
2023/02/07 13:02:36;;;;;;;32.75;11.65;;;17.00;43.60;;;;;;5003317;28;20014;-70
2023/02/07 13:05:02;;;;;;;43.50;12.23;;;17.30;44.50;;;;;;5003218;28;20074;-69